Time;durP1;ratioP1;P1;durP2;ratioP2;P2;SDS_P1;SDS_P2;PMS_P1;PMS_P2;Temp;Humidity;BMP_temperature;BMP_pressure;BME280_temperature;BME280_humidity;BME280_pressure;Samples;Min_cycle;Max_cycle;Signal;HPM_P1;HPM_P2
2023/10/22 04:31:46;;;;;;;0.10;0.10;;;11.60;89.60;;;;;;5176387;23;1145021;-80
2023/10/22 04:34:11;;;;;;;0.03;0.03;;;11.70;90.00;;;;;;4893388;29;20025;-80
2023/10/22 04:36:37;;;;;;;0.10;0.10;;;11.60;89.00;;;;;;4896294;29;20033;-80
2023/10/22 04:39:03;;;;;;;0.00;0.00;;;11.60;89.80;;;;;;4886460;29;20029;-80
2023/10/22 04:41:28;;;;;;;0.10;0.10;;;11.60;89.30;;;;;;4900214;29;20538;-80
2023/10/22 04:43:54;;;;;;;0.10;0.10;;;11.50;89.30;;;;;;4905060;29;20148;-80
2023/10/22 04:46:20;;;;;;;0.10;0.10;;;11.50;89.50;;;;;;4903607;29;20025;-80
2023/10/22 04:48:46;;;;;;;0.10;0.10;;;11.50;89.00;;;;;;4904592;29;20560;-80
2023/10/22 04:51:11;;;;;;;0.10;0.10;;;11.40;89.40;;;;;;4886167;29;20104;-80
2023/10/22 04:53:37;;;;;;;0.10;0.10;;;11.30;89.20;;;;;;4886153;29;20529;-80
2023/10/22 04:56:04;;;;;;;0.10;0.10;;;11.40;89.80;;;;;;4887520;29;20039;-80
2023/10/22 04:58:32;;;;;;;0.10;0.10;;;11.40;89.80;;;;;;4903479;29;20022;-80
2023/10/22 05:00:58;;;;;;;0.00;0.00;;;11.40;89.90;;;;;;4899201;29;20037;-80
2023/10/22 05:03:24;;;;;;;0.10;0.10;;;11.40;90.20;;;;;;4885599;29;20032;-80
2023/10/22 05:05:50;;;;;;;0.03;0.03;;;11.50;90.10;;;;;;4889157;29;20021;-80
2023/10/22 05:08:15;;;;;;;0.10;0.10;;;11.50;89.90;;;;;;4886729;29;20060;-80
2023/10/22 05:10:41;;;;;;;0.10;0.10;;;11.30;89.40;;;;;;4887490;29;20120;-80
2023/10/22 05:13:10;;;;;;;0.10;0.10;;;11.30;89.10;;;;;;4904311;29;20031;-81
2023/10/22 05:15:36;;;;;;;0.10;0.10;;;11.30;89.30;;;;;;4886452;29;20039;-80
2023/10/22 05:18:07;;;;;;;0.10;0.10;;;11.30;89.70;;;;;;4887472;29;20108;-80
2023/10/22 05:20:33;;;;;;;0.10;0.10;;;11.30;89.70;;;;;;4902987;29;20051;-80
2023/10/22 05:22:59;;;;;;;0.10;0.10;;;11.30;89.40;;;;;;4903945;29;20028;-80
2023/10/22 05:25:25;;;;;;;0.10;0.10;;;11.20;89.40;;;;;;4903863;29;20420;-80
2023/10/22 05:27:50;;;;;;;0.10;0.10;;;11.30;89.90;;;;;;4904107;29;20024;-80
2023/10/22 05:30:16;;;;;;;0.10;0.10;;;11.20;89.40;;;;;;4879226;29;20088;-80
2023/10/22 05:32:42;;;;;;;0.10;0.10;;;11.20;89.30;;;;;;4892057;29;20029;-80
2023/10/22 05:35:08;;;;;;;0.00;0.00;;;11.20;89.80;;;;;;4868383;29;20061;-80
2023/10/22 05:37:34;;;;;;;0.10;0.10;;;11.20;89.40;;;;;;4891524;29;20501;-80
2023/10/22 05:40:00;;;;;;;0.10;0.10;;;11.20;89.40;;;;;;4886848;29;20136;-80
2023/10/22 05:42:26;;;;;;;0.10;0.10;;;11.20;89.50;;;;;;4886923;29;20440;-80
2023/10/22 05:44:51;;;;;;;0.10;0.10;;;11.20;89.30;;;;;;4885674;29;20033;-80
2023/10/22 05:47:17;;;;;;;0.10;0.10;;;11.10;89.00;;;;;;4887094;29;20120;-80
2023/10/22 05:49:43;;;;;;;0.10;0.10;;;11.10;89.40;;;;;;4886110;29;20112;-80
2023/10/22 05:52:09;;;;;;;0.10;0.10;;;11.20;89.80;;;;;;4903635;29;20033;-80
2023/10/22 05:54:35;;;;;;;0.10;0.10;;;11.20;90.10;;;;;;4886774;29;20043;-80
2023/10/22 05:57:01;;;;;;;0.00;0.00;;;11.20;89.50;;;;;;4886700;29;20512;-80
2023/10/22 05:59:27;;;;;;;0.20;0.10;;;11.20;89.70;;;;;;4902755;29;20119;-80
2023/10/22 06:01:53;;;;;;;0.00;0.00;;;11.20;89.70;;;;;;4895527;29;20076;-80
2023/10/22 06:04:18;;;;;;;0.10;0.10;;;11.20;89.60;;;;;;4868119;29;20112;-80
2023/10/22 06:06:44;;;;;;;0.10;0.10;;;11.10;89.20;;;;;;4867876;29;20021;-80
2023/10/22 06:09:11;;;;;;;0.10;0.10;;;11.10;89.30;;;;;;4900647;29;20040;-80
2023/10/22 06:11:38;;;;;;;0.00;0.00;;;11.10;89.50;;;;;;4903362;29;20020;-80
2023/10/22 06:14:06;;;;;;;0.10;0.10;;;11.10;89.40;;;;;;4903159;29;20119;-80
2023/10/22 06:16:32;;;;;;;0.00;0.00;;;11.10;89.80;;;;;;4885458;29;20025;-80
2023/10/22 06:18:58;;;;;;;0.13;0.13;;;11.10;89.80;;;;;;4903074;29;20084;-81
2023/10/22 06:21:24;;;;;;;0.10;0.10;;;11.10;89.30;;;;;;4903218;29;20016;-80
2023/10/22 06:23:50;;;;;;;0.03;0.03;;;11.00;89.50;;;;;;4885123;29;20064;-80
2023/10/22 06:26:16;;;;;;;0.10;0.10;;;11.10;89.20;;;;;;4897076;29;20029;-78
2023/10/22 06:28:42;;;;;;;0.10;0.10;;;11.00;89.30;;;;;;4884461;29;20497;-77
2023/10/22 06:31:10;;;;;;;0.10;0.10;;;11.00;89.60;;;;;;4879137;29;20049;-77
2023/10/22 06:33:36;;;;;;;0.10;0.10;;;11.00;89.40;;;;;;4849099;29;20573;-83
2023/10/22 06:36:12;;;;;;;0.10;0.10;;;11.00;89.30;;;;;;4848983;29;20040;-76
2023/10/22 06:38:38;;;;;;;0.10;0.10;;;11.00;89.00;;;;;;4864346;29;20041;-76
2023/10/22 06:41:05;;;;;;;0.10;0.10;;;10.90;89.00;;;;;;4878010;29;20037;-75
2023/10/22 06:43:30;;;;;;;0.10;0.10;;;10.90;88.90;;;;;;4884044;29;20782;-74
2023/10/22 06:45:59;;;;;;;0.10;0.10;;;10.80;89.30;;;;;;4880440;29;20029;-75
2023/10/22 06:48:25;;;;;;;0.10;0.10;;;10.90;89.20;;;;;;4873293;29;20022;-76
2023/10/22 06:50:51;;;;;;;0.10;0.10;;;10.90;89.40;;;;;;4873362;29;20033;-77
2023/10/22 06:53:16;;;;;;;0.10;0.10;;;10.90;89.00;;;;;;4860283;29;20033;-77
2023/10/22 06:55:42;;;;;;;0.10;0.10;;;11.00;89.70;;;;;;4869914;29;20025;-79
2023/10/22 06:58:16;;;;;;;0.10;0.10;;;11.00;89.60;;;;;;5079238;27;20391;-76
2023/10/22 07:00:42;;;;;;;0.10;0.10;;;11.00;89.70;;;;;;5056040;28;20052;-77
2023/10/22 07:03:07;;;;;;;0.00;0.00;;;11.00;89.30;;;;;;5092506;28;20561;-76
2023/10/22 07:05:33;;;;;;;0.10;0.10;;;11.00;89.30;;;;;;5094061;28;20024;-83
2023/10/22 07:07:59;;;;;;;0.10;0.10;;;11.00;89.10;;;;;;5092808;28;20050;-78
2023/10/22 07:10:24;;;;;;;0.10;0.10;;;11.00;89.30;;;;;;5073989;28;20025;-79
2023/10/22 07:12:50;;;;;;;0.05;0.05;;;11.00;88.90;;;;;;5073984;28;20067;-77
2023/10/22 07:15:16;;;;;;;0.00;0.00;;;11.00;89.30;;;;;;5076582;28;20103;-77
2023/10/22 07:17:42;;;;;;;0.10;0.10;;;11.10;89.20;;;;;;5091977;28;20115;-77
2023/10/22 07:20:08;;;;;;;0.10;0.10;;;11.10;89.50;;;;;;5091362;28;20078;-74
2023/10/22 07:22:33;;;;;;;0.10;0.10;;;11.10;88.90;;;;;;5073525;28;20032;-79
2023/10/22 07:24:59;;;;;;;0.10;0.10;;;11.10;89.30;;;;;;5074683;28;20020;-81
2023/10/22 07:27:24;;;;;;;0.10;0.10;;;11.10;89.10;;;;;;5091636;28;20024;-77
2023/10/22 07:29:50;;;;;;;0.10;0.10;;;11.10;89.10;;;;;;5092910;28;20044;-76
2023/10/22 07:32:16;;;;;;;0.10;0.10;;;11.20;89.00;;;;;;5070657;28;20039;-78
2023/10/22 07:34:41;;;;;;;0.10;0.10;;;11.20;89.00;;;;;;5081189;28;20102;-79
2023/10/22 07:37:07;;;;;;;0.10;0.10;;;11.20;89.00;;;;;;5089113;28;20115;-77
2023/10/22 07:39:32;;;;;;;0.10;0.10;;;11.30;89.00;;;;;;5092283;28;20526;-76
2023/10/22 07:41:59;;;;;;;0.10;0.10;;;11.30;89.00;;;;;;5073967;28;20031;-78
2023/10/22 07:44:25;;;;;;;0.10;0.10;;;11.30;89.20;;;;;;5091323;28;20020;-78
2023/10/22 07:46:50;;;;;;;0.13;0.13;;;11.40;89.10;;;;;;5089760;28;20043;-78
2023/10/22 07:49:16;;;;;;;0.10;0.10;;;11.40;88.90;;;;;;5091164;28;20028;-76
2023/10/22 07:51:42;;;;;;;0.20;0.20;;;11.50;89.10;;;;;;5092898;28;20040;-78
2023/10/22 07:54:08;;;;;;;0.10;0.10;;;11.50;89.10;;;;;;5092063;28;20031;-76
2023/10/22 07:56:34;;;;;;;0.10;0.10;;;11.60;88.90;;;;;;5091632;28;20048;-76
2023/10/22 07:59:00;;;;;;;0.10;0.10;;;11.60;89.00;;;;;;5057313;28;20059;-80
2023/10/22 08:01:26;;;;;;;0.10;0.10;;;11.70;89.10;;;;;;5059096;28;20028;-79
2023/10/22 08:03:51;;;;;;;0.10;0.10;;;11.80;89.10;;;;;;5062127;28;20021;-82
2023/10/22 08:06:17;;;;;;;0.10;0.10;;;11.80;88.90;;;;;;5054763;28;20043;-77
2023/10/22 08:08:43;;;;;;;0.10;0.10;;;12.00;88.90;;;;;;5072692;28;20032;-77
2023/10/22 08:11:08;;;;;;;0.10;0.10;;;12.00;88.80;;;;;;5065131;28;20404;-77
2023/10/22 08:13:34;;;;;;;0.10;0.10;;;12.10;88.60;;;;;;5045568;28;20029;-77
2023/10/22 08:16:06;;;;;;;0.10;0.10;;;12.10;88.20;;;;;;5063310;28;20035;-78
2023/10/22 08:18:32;;;;;;;0.20;0.20;;;12.20;88.30;;;;;;5041697;28;20032;-78
2023/10/22 08:21:06;;;;;;;0.10;0.10;;;12.30;88.20;;;;;;5041384;28;20029;-80
2023/10/22 08:23:32;;;;;;;0.10;0.10;;;12.30;88.40;;;;;;5075361;28;20231;-83
2023/10/22 08:25:58;;;;;;;0.10;0.10;;;12.40;88.20;;;;;;5061432;28;20036;-81
2023/10/22 08:28:23;;;;;;;0.10;0.10;;;12.50;88.10;;;;;;5055668;28;20139;-78
2023/10/22 08:30:50;;;;;;;0.10;0.10;;;12.50;88.00;;;;;;5078859;28;20017;-80
2023/10/22 08:33:16;;;;;;;0.10;0.10;;;12.60;88.00;;;;;;5061088;28;20073;-79
2023/10/22 08:35:42;;;;;;;0.10;0.10;;;12.70;88.10;;;;;;5074764;28;20025;-84
2023/10/22 08:38:08;;;;;;;0.00;0.00;;;12.70;87.90;;;;;;5078797;28;20032;-78
2023/10/22 08:40:38;;;;;;;0.10;0.10;;;12.70;87.90;;;;;;5072479;28;20029;-79
2023/10/22 08:43:15;;;;;;;0.10;0.10;;;12.70;87.60;;;;;;5073220;28;20074;-80
2023/10/22 08:45:41;;;;;;;0.10;0.10;;;12.80;87.80;;;;;;5073535;28;20073;-77
2023/10/22 08:48:08;;;;;;;0.10;0.10;;;12.80;87.80;;;;;;5077791;28;20104;-77
2023/10/22 08:50:35;;;;;;;0.10;0.10;;;12.80;87.80;;;;;;5076227;28;20098;-79
2023/10/22 08:53:00;;;;;;;0.10;0.10;;;12.90;87.70;;;;;;5077060;28;20016;-77
2023/10/22 08:55:29;;;;;;;0.10;0.10;;;13.00;87.80;;;;;;5073293;28;20070;-77
2023/10/22 08:57:55;;;;;;;0.10;0.10;;;13.00;87.70;;;;;;5072573;28;20094;-77
2023/10/22 09:00:24;;;;;;;0.10;0.10;;;13.00;87.30;;;;;;5075181;28;20029;-77
2023/10/22 09:02:49;;;;;;;0.10;0.10;;;13.10;87.50;;;;;;5074107;28;20056;-78
2023/10/22 09:05:23;;;;;;;0.10;0.10;;;13.10;87.50;;;;;;5071959;28;20415;-78
2023/10/22 09:07:50;;;;;;;0.10;0.10;;;13.20;87.40;;;;;;5075459;28;20050;-78
2023/10/22 09:10:31;;;;;;;0.10;0.10;;;13.20;87.40;;;;;;5076192;28;20032;-78
2023/10/22 09:13:20;;;;;;;0.10;0.10;;;13.30;87.30;;;;;;5064689;28;20025;-79
2023/10/22 09:15:46;;;;;;;0.10;0.10;;;13.50;87.60;;;;;;5072052;28;20016;-77
2023/10/22 09:18:13;;;;;;;0.10;0.10;;;13.50;87.20;;;;;;5076034;28;20024;-78
2023/10/22 09:20:40;;;;;;;0.10;0.10;;;13.60;87.30;;;;;;5075366;28;20016;-77
2023/10/22 09:23:20;;;;;;;0.10;0.10;;;13.70;87.10;;;;;;5076612;28;20028;-78
2023/10/22 09:25:55;;;;;;;0.10;0.10;;;13.70;87.10;;;;;;5058872;28;20028;-78
2023/10/22 09:28:24;;;;;;;0.10;0.10;;;13.80;87.00;;;;;;5058111;28;20078;-78
2023/10/22 09:30:59;;;;;;;2.10;2.05;;;13.90;86.90;;;;;;5074832;28;20202;-78
2023/10/22 09:33:43;;;;;;;0.10;0.10;;;14.00;86.40;;;;;;5067865;28;20021;-78
2023/10/22 09:36:11;;;;;;;0.10;0.10;;;14.10;86.30;;;;;;5071469;28;20115;-77
2023/10/22 09:38:42;;;;;;;0.10;0.10;;;14.10;86.20;;;;;;5074246;28;20487;-82
2023/10/22 09:41:11;;;;;;;0.10;0.10;;;14.20;85.70;;;;;;5073917;28;20028;-80
2023/10/22 09:43:37;;;;;;;0.05;0.05;;;14.30;85.70;;;;;;5065362;28;20108;-79
2023/10/22 09:46:06;;;;;;;0.10;0.10;;;14.30;85.50;;;;;;5063478;28;20033;-79
2023/10/22 09:48:34;;;;;;;0.10;0.10;;;14.30;85.30;;;;;;5076831;28;20484;-77
2023/10/22 09:51:04;;;;;;;0.10;0.10;;;14.40;84.70;;;;;;5074565;28;20070;-77
2023/10/22 09:53:33;;;;;;;0.10;0.10;;;14.50;84.70;;;;;;5074174;28;20447;-79
2023/10/22 09:56:01;;;;;;;0.10;0.10;;;14.50;84.30;;;;;;5063971;28;20103;-78
2023/10/22 09:58:31;;;;;;;0.10;0.10;;;14.50;84.20;;;;;;5064534;28;20056;-78
2023/10/22 10:00:59;;;;;;;0.10;0.10;;;14.60;83.60;;;;;;5066534;28;20048;-83
2023/10/22 10:03:27;;;;;;;0.10;0.10;;;14.70;84.20;;;;;;5062456;28;20020;-79
2023/10/22 10:05:53;;;;;;;0.10;0.10;;;14.80;84.00;;;;;;5076003;28;20024;-78
2023/10/22 10:08:20;;;;;;;0.10;0.10;;;14.80;83.30;;;;;;5072725;28;20403;-78
2023/10/22 10:10:47;;;;;;;0.10;0.10;;;14.90;83.60;;;;;;5073204;28;20024;-79
2023/10/22 10:13:13;;;;;;;0.10;0.10;;;15.00;83.60;;;;;;5076130;28;20118;-79
2023/10/22 10:15:38;;;;;;;0.10;0.10;;;15.00;83.20;;;;;;5064689;28;20423;-79
2023/10/22 10:18:07;;;;;;;0.10;0.10;;;15.00;83.30;;;;;;5071930;28;20024;-77
2023/10/22 10:20:35;;;;;;;0.10;0.10;;;15.10;83.10;;;;;;5072793;28;20383;-77
2023/10/22 10:23:04;;;;;;;0.10;0.10;;;15.20;82.40;;;;;;5078242;28;20055;-78
2023/10/22 10:25:32;;;;;;;0.10;0.10;;;15.20;82.10;;;;;;5059498;28;20081;-80
2023/10/22 10:28:02;;;;;;;0.10;0.10;;;15.20;81.70;;;;;;5075641;28;20021;-87
2023/10/22 10:30:28;;;;;;;0.10;0.10;;;15.30;81.90;;;;;;5058875;28;20139;-88
2023/10/22 10:32:54;;;;;;;0.10;0.10;;;15.40;81.80;;;;;;5074667;28;20052;-87
2023/10/22 10:35:21;;;;;;;0.00;0.00;;;15.40;81.90;;;;;;5068740;28;20074;-80
2023/10/22 10:38:11;;;;;;;0.10;0.10;;;15.40;81.70;;;;;;5063533;28;20108;-84
2023/10/22 10:40:46;;;;;;;0.10;0.10;;;15.40;81.40;;;;;;5061468;28;20028;-86
2023/10/22 10:43:12;;;;;;;0.10;0.10;;;15.50;81.70;;;;;;5075587;28;20017;-81
2023/10/22 10:45:41;;;;;;;0.10;0.10;;;15.60;81.90;;;;;;5066685;28;20055;-87
2023/10/22 10:48:26;;;;;;;0.05;0.05;;;15.70;81.40;;;;;;5053748;28;20029;-83
2023/10/22 10:51:19;;;;;;;0.10;0.10;;;15.70;80.50;;;;;;5055735;28;20400;-80
2023/10/22 10:54:08;;;;;;;0.10;0.10;;;15.80;79.30;;;;;;5054768;28;20021;-80
2023/10/22 10:56:55;;;;;;;0.10;0.10;;;15.90;79.40;;;;;;5057187;28;20045;-78
2023/10/22 10:59:26;;;;;;;0.10;0.10;;;16.00;79.20;;;;;;5055699;28;20031;-81
2023/10/22 11:02:08;;;;;;;0.00;0.00;;;16.10;78.70;;;;;;5051012;28;20021;-79
2023/10/22 11:04:36;;;;;;;0.10;0.10;;;16.20;78.70;;;;;;5070569;28;20025;-79
2023/10/22 11:07:02;;;;;;;0.00;0.00;;;16.30;78.40;;;;;;5057786;28;20025;-79
2023/10/22 11:09:28;;;;;;;0.00;0.00;;;16.30;78.40;;;;;;5057117;28;21062;-79
2023/10/22 11:11:58;;;;;;;0.00;0.00;;;16.30;76.50;;;;;;5075713;28;20024;-78
2023/10/22 11:14:25;;;;;;;0.08;0.08;;;16.10;76.70;;;;;;5065418;28;20557;-80
2023/10/22 11:16:55;;;;;;;0.03;0.00;;;16.10;76.60;;;;;;5057956;28;20017;-82
2023/10/22 11:19:32;;;;;;;0.10;0.10;;;15.90;77.20;;;;;;5075989;28;20530;-81
2023/10/22 11:21:58;;;;;;;0.00;0.00;;;16.00;75.90;;;;;;5074991;28;20380;-80
2023/10/22 11:24:34;;;;;;;0.10;0.10;;;16.10;75.50;;;;;;5075759;28;20631;-81
2023/10/22 11:27:02;;;;;;;0.03;0.03;;;16.00;75.80;;;;;;5043782;28;20027;-83
2023/10/22 11:29:28;;;;;;;0.10;0.10;;;16.20;77.00;;;;;;5076059;28;20037;-86
2023/10/22 11:31:58;;;;;;;0.15;0.15;;;16.50;77.10;;;;;;5057768;28;20101;-89
2023/10/22 11:34:25;;;;;;;0.10;0.10;;;16.40;75.00;;;;;;5069888;28;20033;-89
2023/10/22 11:37:00;;;;;;;0.03;0.03;;;16.50;74.90;;;;;;5058091;28;20139;-84
2023/10/22 11:39:35;;;;;;;0.10;0.10;;;16.70;75.60;;;;;;5053867;28;20025;-85
2023/10/22 11:42:07;;;;;;;0.00;0.00;;;16.70;74.90;;;;;;5071924;28;20626;-84
2023/10/22 11:44:43;;;;;;;0.00;0.00;;;16.60;74.90;;;;;;5064478;28;20024;-81
2023/10/22 11:47:26;;;;;;;0.10;0.10;;;16.50;74.80;;;;;;5076486;28;20032;-82
2023/10/22 11:49:56;;;;;;;0.00;0.00;;;16.60;75.10;;;;;;5061338;28;20040;-84
2023/10/22 11:52:47;;;;;;;0.00;0.00;;;16.80;75.10;;;;;;5075963;28;20029;-87
2023/10/22 11:55:13;;;;;;;0.00;0.00;;;16.80;74.00;;;;;;5076191;28;20021;-88
2023/10/22 11:57:39;;;;;;;0.10;0.10;;;16.80;74.20;;;;;;5077872;28;20040;-90
2023/10/22 12:00:12;;;;;;;0.05;0.05;;;16.80;74.20;;;;;;5061023;28;20025;-88
2023/10/22 12:02:39;;;;;;;0.10;0.10;;;16.70;74.20;;;;;;5064250;28;20040;-87
2023/10/22 12:05:05;;;;;;;0.10;0.10;;;16.70;72.90;;;;;;5070229;28;20025;-87
2023/10/22 12:07:31;;;;;;;0.10;0.10;;;16.70;72.80;;;;;;5074566;28;20090;-87
2023/10/22 12:09:57;;;;;;;0.00;0.00;;;16.80;73.10;;;;;;5076323;28;20051;-87
2023/10/22 12:12:23;;;;;;;0.00;0.00;;;17.10;72.20;;;;;;5058042;28;20047;-85
2023/10/22 12:14:49;;;;;;;0.00;0.00;;;17.20;70.10;;;;;;5077524;28;21497;-90
2023/10/22 12:17:16;;;;;;;0.00;0.00;;;17.00;70.10;;;;;;5056719;28;20032;-86
2023/10/22 12:19:42;;;;;;;0.10;0.10;;;16.80;72.00;;;;;;5056597;28;20032;-87
2023/10/22 12:22:07;;;;;;;0.00;0.00;;;16.50;72.90;;;;;;5059658;28;20029;-86
2023/10/22 12:24:33;;;;;;;0.00;0.00;;;16.50;73.50;;;;;;5076964;28;20426;-88
2023/10/22 12:26:59;;;;;;;0.00;0.00;;;16.30;73.70;;;;;;5073151;28;20029;-87
2023/10/22 12:29:25;;;;;;;0.00;0.00;;;16.30;74.20;;;;;;5059163;28;20028;-86
2023/10/22 12:31:51;;;;;;;0.10;0.10;;;16.10;74.30;;;;;;5077689;28;20024;-88
2023/10/22 12:34:18;;;;;;;0.00;0.00;;;16.10;74.60;;;;;;5057572;28;20078;-86
2023/10/22 12:36:44;;;;;;;0.10;0.10;;;16.10;75.00;;;;;;5056092;28;20036;-87
2023/10/22 12:39:10;;;;;;;0.10;0.10;;;16.10;75.00;;;;;;5077526;28;20448;-87
2023/10/22 12:41:36;;;;;;;0.10;0.10;;;16.20;74.10;;;;;;5077017;28;20052;-87
2023/10/22 12:44:03;;;;;;;0.10;0.10;;;16.40;74.60;;;;;;5066918;28;20048;-88
2023/10/22 12:46:29;;;;;;;0.00;0.00;;;16.60;74.00;;;;;;5071408;28;20054;-88
2023/10/22 12:48:55;;;;;;;0.03;0.03;;;16.70;73.60;;;;;;5066043;28;20024;-88
2023/10/22 12:51:21;;;;;;;0.10;0.10;;;16.50;73.60;;;;;;5075905;28;20032;-87
2023/10/22 12:53:48;;;;;;;0.00;0.00;;;16.70;74.30;;;;;;5066323;28;20024;-89
2023/10/22 12:56:15;;;;;;;0.08;0.08;;;16.90;73.60;;;;;;5066325;28;20056;-87
2023/10/22 12:58:41;;;;;;;0.10;0.10;;;17.00;73.10;;;;;;5066401;28;20024;-87
2023/10/22 13:01:07;;;;;;;0.10;0.10;;;17.10;72.70;;;;;;5067972;28;20031;-88
2023/10/22 13:03:33;;;;;;;0.10;0.10;;;17.30;72.70;;;;;;5067764;28;20551;-87
2023/10/22 13:06:03;;;;;;;0.10;0.10;;;17.40;70.70;;;;;;5076123;28;20021;-88
2023/10/22 13:08:28;;;;;;;0.10;0.10;;;17.60;70.80;;;;;;5075937;28;20032;-88
2023/10/22 13:10:54;;;;;;;0.00;0.00;;;17.60;69.70;;;;;;5076737;28;20492;-88
2023/10/22 13:13:19;;;;;;;0.00;0.00;;;17.50;69.10;;;;;;5075103;28;20104;-88
2023/10/22 13:15:45;;;;;;;0.00;0.00;;;17.30;69.20;;;;;;5066055;28;20153;-88
2023/10/22 13:18:11;;;;;;;0.10;0.10;;;17.00;67.70;;;;;;5067937;28;20038;-87
2023/10/22 13:20:37;;;;;;;0.00;0.00;;;16.80;69.50;;;;;;5076212;28;20493;-86
2023/10/22 13:23:02;;;;;;;0.05;0.05;;;16.70;70.30;;;;;;5074619;28;20017;-87
2023/10/22 13:25:28;;;;;;;0.00;0.00;;;16.60;70.60;;;;;;5067683;28;20487;-86
2023/10/22 13:27:54;;;;;;;0.10;0.10;;;16.60;70.70;;;;;;5067687;28;20373;-88
2023/10/22 13:30:19;;;;;;;0.05;0.05;;;16.60;71.00;;;;;;5064704;28;20111;-86
2023/10/22 13:32:45;;;;;;;0.05;0.05;;;16.70;71.40;;;;;;5064133;28;20033;-86
2023/10/22 13:35:11;;;;;;;0.03;0.03;;;16.90;71.60;;;;;;5064582;28;20024;-87
2023/10/22 13:37:37;;;;;;;0.00;0.00;;;17.00;71.10;;;;;;5076747;28;20021;-89
2023/10/22 13:40:05;;;;;;;0.10;0.10;;;17.20;70.80;;;;;;5064848;28;20017;-88
2023/10/22 13:42:31;;;;;;;0.00;0.00;;;17.20;68.90;;;;;;5058683;28;20032;-91
2023/10/22 13:44:57;;;;;;;0.10;0.10;;;17.20;69.30;;;;;;5077029;28;20028;-89
2023/10/22 13:47:22;;;;;;;0.00;0.00;;;17.10;69.10;;;;;;5074220;28;20024;-86
2023/10/22 13:49:48;;;;;;;0.03;0.03;;;17.10;68.70;;;;;;5066899;28;20024;-87
2023/10/22 13:52:15;;;;;;;0.00;0.00;;;17.20;69.80;;;;;;5067816;28;20024;-86
2023/10/22 13:54:41;;;;;;;0.10;0.10;;;17.30;69.20;;;;;;5060598;28;20029;-87
2023/10/22 13:57:06;;;;;;;0.00;0.00;;;17.40;68.80;;;;;;5066188;28;20048;-86
2023/10/22 13:59:32;;;;;;;0.08;0.08;;;17.60;68.00;;;;;;5075627;28;20024;-88
2023/10/22 14:01:59;;;;;;;0.00;0.00;;;17.70;68.30;;;;;;5068120;28;20032;-88
2023/10/22 14:04:24;;;;;;;0.00;0.00;;;17.50;68.30;;;;;;5068759;28;20012;-88
2023/10/22 14:06:50;;;;;;;0.00;0.00;;;17.30;68.70;;;;;;5063925;28;20031;-88
2023/10/22 14:09:16;;;;;;;0.00;0.00;;;17.20;69.10;;;;;;5066338;28;20388;-89
2023/10/22 14:11:41;;;;;;;0.00;0.00;;;17.10;69.30;;;;;;5058826;28;20513;-87
2023/10/22 14:14:07;;;;;;;0.00;0.00;;;17.00;69.20;;;;;;5075413;28;20103;-88
2023/10/22 14:16:35;;;;;;;0.00;0.00;;;17.10;70.20;;;;;;5073633;28;20024;-87
2023/10/22 14:19:01;;;;;;;0.05;0.05;;;17.10;69.90;;;;;;5067400;28;20024;-88
2023/10/22 14:21:28;;;;;;;0.08;0.08;;;17.30;69.10;;;;;;5053361;28;20028;-88
2023/10/22 14:23:53;;;;;;;0.10;0.10;;;17.60;68.80;;;;;;5069909;28;20020;-88
2023/10/22 14:26:19;;;;;;;0.05;0.05;;;17.80;68.40;;;;;;5073928;28;20027;-89
2023/10/22 14:28:45;;;;;;;0.00;0.00;;;18.00;67.40;;;;;;5068854;28;20027;-89
2023/10/22 14:31:10;;;;;;;0.00;0.00;;;18.00;66.40;;;;;;5059462;28;20031;-89
2023/10/22 14:33:37;;;;;;;0.00;0.00;;;17.90;65.50;;;;;;5068581;28;20492;-88
2023/10/22 14:36:04;;;;;;;0.00;0.00;;;17.70;67.60;;;;;;5059150;28;20495;-88
2023/10/22 14:38:31;;;;;;;0.10;0.10;;;17.80;68.00;;;;;;5078167;28;20162;-94
2023/10/22 14:40:59;;;;;;;0.10;0.10;;;17.90;68.30;;;;;;5066223;28;20017;-90
2023/10/22 14:43:26;;;;;;;0.10;0.10;;;18.10;68.50;;;;;;5060912;28;20136;-93
2023/10/22 14:45:51;;;;;;;0.00;0.00;;;18.30;67.00;;;;;;5060785;28;20031;-90
2023/10/22 14:48:17;;;;;;;0.00;0.00;;;18.20;66.40;;;;;;5071170;28;20033;-87
2023/10/22 14:50:56;;;;;;;0.00;0.00;;;17.90;66.60;;;;;;5058421;28;20040;-91
2023/10/22 14:53:22;;;;;;;0.05;0.05;;;17.60;66.60;;;;;;5054882;28;20050;-85
2023/10/22 14:56:00;;;;;;;0.00;0.00;;;17.60;67.80;;;;;;5048799;28;20727;-86
2023/10/22 14:58:26;;;;;;;0.00;0.00;;;17.40;68.20;;;;;;5068599;28;20029;-91
2023/10/22 15:00:52;;;;;;;0.00;0.00;;;17.30;67.90;;;;;;5061997;28;20032;-86
2023/10/22 15:03:18;;;;;;;0.00;0.00;;;17.30;68.60;;;;;;5062360;28;20024;-85
2023/10/22 15:05:48;;;;;;;0.10;0.10;;;17.20;67.50;;;;;;5070153;28;20037;-86
2023/10/22 15:08:14;;;;;;;0.00;0.00;;;17.20;68.50;;;;;;5062846;28;20035;-86
2023/10/22 15:10:41;;;;;;;0.00;0.00;;;17.20;68.80;;;;;;5072352;28;20028;-86
2023/10/22 15:13:07;;;;;;;0.00;0.00;;;17.30;69.10;;;;;;5074717;28;20029;-86
2023/10/22 15:15:46;;;;;;;0.10;0.10;;;17.30;69.10;;;;;;5064271;28;20027;-85
2023/10/22 15:18:14;;;;;;;0.10;0.10;;;17.40;69.30;;;;;;5070748;28;20028;-85
2023/10/22 15:20:50;;;;;;;0.10;0.10;;;17.50;69.80;;;;;;5069070;28;20020;-85
2023/10/22 15:23:17;;;;;;;0.00;0.00;;;17.50;68.60;;;;;;5076573;28;20021;-86
2023/10/22 15:25:48;;;;;;;0.10;0.10;;;17.60;69.00;;;;;;5069969;28;20471;-86
2023/10/22 15:28:14;;;;;;;0.10;0.10;;;17.60;66.90;;;;;;5057556;28;20032;-86
2023/10/22 15:30:40;;;;;;;0.00;0.00;;;17.50;67.00;;;;;;5062998;28;20059;-85
2023/10/22 15:33:06;;;;;;;0.03;0.03;;;17.50;66.90;;;;;;5075762;28;20044;-85
2023/10/22 15:35:32;;;;;;;0.00;0.00;;;17.50;66.80;;;;;;5070034;28;20021;-84
2023/10/22 15:38:02;;;;;;;0.05;0.05;;;17.40;66.20;;;;;;5077801;28;20032;-83
2023/10/22 15:40:30;;;;;;;0.00;0.00;;;17.50;67.30;;;;;;5073261;28;20021;-83
2023/10/22 15:42:56;;;;;;;0.00;0.00;;;17.40;67.00;;;;;;5067525;28;20036;-83
2023/10/22 15:45:22;;;;;;;0.00;0.00;;;17.40;67.60;;;;;;5075565;28;20020;-84
2023/10/22 15:47:56;;;;;;;0.00;0.00;;;17.50;67.90;;;;;;5065720;28;20036;-83
2023/10/22 15:50:23;;;;;;;0.00;0.00;;;17.60;67.60;;;;;;5064126;28;20095;-83
2023/10/22 15:52:50;;;;;;;0.00;0.00;;;17.70;67.30;;;;;;5055021;28;20123;-87
2023/10/22 15:55:16;;;;;;;0.00;0.00;;;17.70;66.80;;;;;;5068095;28;20025;-84
2023/10/22 15:57:42;;;;;;;0.00;0.00;;;17.60;68.00;;;;;;5076767;28;20495;-84
2023/10/22 16:00:09;;;;;;;0.00;0.00;;;17.60;68.10;;;;;;5075591;28;20047;-85
2023/10/22 16:02:36;;;;;;;0.00;0.00;;;17.40;67.40;;;;;;5076493;28;20107;-84
2023/10/22 16:05:10;;;;;;;0.05;0.05;;;17.30;67.50;;;;;;5076720;28;20013;-83
2023/10/22 16:07:37;;;;;;;0.00;0.00;;;17.20;68.40;;;;;;5062472;28;20028;-84
2023/10/22 16:10:04;;;;;;;0.00;0.00;;;17.20;68.80;;;;;;5075749;28;20024;-86
2023/10/22 16:12:30;;;;;;;0.00;0.00;;;17.00;68.40;;;;;;5070846;28;20092;-84
2023/10/22 16:14:57;;;;;;;0.00;0.00;;;16.90;69.20;;;;;;5066981;28;20577;-84
2023/10/22 16:17:22;;;;;;;0.00;0.00;;;16.90;70.00;;;;;;5062093;28;20024;-84
2023/10/22 16:19:51;;;;;;;0.03;0.03;;;16.80;70.40;;;;;;5072965;28;20021;-84
2023/10/22 16:22:17;;;;;;;0.05;0.05;;;16.80;70.40;;;;;;5072725;28;20021;-84
2023/10/22 16:24:44;;;;;;;0.00;0.00;;;16.80;70.40;;;;;;5079339;28;20033;-84
2023/10/22 16:27:11;;;;;;;0.00;0.00;;;16.70;69.90;;;;;;5063378;28;20037;-85
2023/10/22 16:29:36;;;;;;;0.00;0.00;;;16.60;69.50;;;;;;5059893;28;20446;-85
2023/10/22 16:32:02;;;;;;;0.00;0.00;;;16.60;70.30;;;;;;5075277;28;20029;-85
2023/10/22 16:34:28;;;;;;;0.00;0.00;;;16.50;71.10;;;;;;5061998;28;20059;-84
2023/10/22 16:36:54;;;;;;;0.00;0.00;;;16.50;71.40;;;;;;5080236;28;20060;-84
2023/10/22 16:39:20;;;;;;;0.00;0.00;;;16.40;72.00;;;;;;5069911;28;20550;-84
2023/10/22 16:41:46;;;;;;;0.00;0.00;;;16.30;72.10;;;;;;5054095;28;20028;-86
2023/10/22 16:44:20;;;;;;;0.00;0.00;;;16.30;72.30;;;;;;5059970;28;20040;-86
2023/10/22 16:46:46;;;;;;;0.00;0.00;;;16.20;73.50;;;;;;5070070;28;20033;-86
2023/10/22 16:49:12;;;;;;;0.00;0.00;;;16.00;74.40;;;;;;5074871;28;20031;-85
2023/10/22 16:51:37;;;;;;;0.00;0.00;;;16.00;74.30;;;;;;5076864;28;20024;-85
2023/10/22 16:54:04;;;;;;;0.00;0.00;;;15.90;74.40;;;;;;5070591;28;20100;-80
2023/10/22 16:56:30;;;;;;;0.00;0.00;;;15.80;75.40;;;;;;5076439;28;20070;-84
2023/10/22 16:58:56;;;;;;;0.00;0.00;;;15.80;75.30;;;;;;5066226;28;20074;-81
2023/10/22 17:01:22;;;;;;;0.00;0.00;;;15.70;75.90;;;;;;5077504;28;20020;-82
2023/10/22 17:03:47;;;;;;;0.00;0.00;;;15.60;75.50;;;;;;5076900;28;20496;-83
2023/10/22 17:06:15;;;;;;;0.08;0.08;;;15.50;76.50;;;;;;5076974;28;20013;-83
2023/10/22 17:08:44;;;;;;;0.00;0.00;;;15.50;76.40;;;;;;5077187;28;20028;-83
2023/10/22 17:11:10;;;;;;;0.00;0.00;;;15.40;77.50;;;;;;5058460;28;20024;-86
2023/10/22 17:13:42;;;;;;;0.08;0.08;;;15.30;77.00;;;;;;5061588;28;20373;-89
2023/10/22 17:16:08;;;;;;;0.00;0.00;;;15.30;77.40;;;;;;5072133;28;20028;-88
2023/10/22 17:18:33;;;;;;;0.00;0.00;;;15.30;77.80;;;;;;5058941;28;20020;-82
2023/10/22 17:21:01;;;;;;;0.10;0.10;;;15.20;77.50;;;;;;5063512;28;20026;-80